Terminal Aerodrome Forecast
Issued by NWS

Home | Current Version | Previous Version | Text Only | Print | Product List | Glossary On
Versions: 1 2 3 4 5 6 7 8 9 10 11 12 13 14 15 16 17
000
FTAK31 PANC 231140 AAA
TAFAHO
TAF AMD
PAHO 231140Z 2312/2412 VRB05KT 5SM -SHSN SCT025 OVC040
      TEMPO 2312/2315 2SM -SN BR OVC015
     FM231500 VRB05KT P6SM VCSH SCT015 OVC025
     FM240100 28005KT P6SM SCT015 OVC025
     FM240500 33007KT P6SM SCT025 OVC050=

USA.gov is the U.S. government's official web portal to all federal, state and local government web resources and services.